createdAt,value
2023-03-15T00:00:39.715Z,51.99
2023-03-15T00:03:39.919Z,52.17
2023-03-15T00:06:39.770Z,51.69
2023-03-15T00:09:39.682Z,52.58
2023-03-15T00:11:39.764Z,52
2023-03-15T00:14:39.714Z,52.09
2023-03-15T00:17:39.667Z,51.49
2023-03-15T00:19:39.678Z,52.96
2023-03-15T00:22:39.672Z,52.99
2023-03-15T00:25:39.696Z,51.92
2023-03-15T00:28:39.683Z,53.17
2023-03-15T00:30:39.715Z,51.6
2023-03-15T00:33:39.693Z,51.95
2023-03-15T00:35:39.719Z,52.22
2023-03-15T00:38:39.682Z,53.1
2023-03-15T00:41:39.656Z,51.61
2023-03-15T00:43:39.716Z,51.7
2023-03-15T00:46:39.774Z,52.78
2023-03-15T00:49:39.685Z,52.26
2023-03-15T00:51:39.661Z,52.7
2023-03-15T00:54:39.709Z,52.66
2023-03-15T00:57:39.696Z,52.47
2023-03-15T01:00:39.688Z,52.2
2023-03-15T01:03:39.659Z,52.15
2023-03-15T01:05:39.701Z,51.88
2023-03-15T01:07:39.681Z,51.26
2023-03-15T01:09:39.668Z,51.16
2023-03-15T01:12:39.710Z,51.26
2023-03-15T01:14:39.699Z,52.27
2023-03-15T01:17:39.714Z,52.46
2023-03-15T01:20:39.680Z,52.75
2023-03-15T01:25:39.649Z,52.65
2023-03-15T01:28:39.688Z,52.67
2023-03-15T01:30:39.673Z,52.39
2023-03-15T01:33:39.685Z,52.91
2023-03-15T01:36:39.675Z,52.87
2023-03-15T01:39:39.697Z,51.99
2023-03-15T01:42:39.645Z,52.54
2023-03-15T01:45:39.691Z,53.63
2023-03-15T01:48:39.705Z,53.08
2023-03-15T01:50:39.686Z,53.02
2023-03-15T01:52:39.685Z,52.22
2023-03-15T01:55:39.676Z,53.25
2023-03-15T01:57:39.740Z,53.18
2023-03-15T02:00:39.712Z,52.62
2023-03-15T02:02:39.899Z,52.01
2023-03-15T02:05:39.690Z,51.09
2023-03-15T02:08:39.691Z,52.19
2023-03-15T02:11:39.685Z,52.18
2023-03-15T02:13:39.766Z,52.1
2023-03-15T02:16:39.694Z,51.54
2023-03-15T02:19:39.727Z,51.96
2023-03-15T02:22:39.686Z,51.79
2023-03-15T02:24:39.689Z,51.84
2023-03-15T02:26:39.672Z,52.4
2023-03-15T02:29:39.656Z,51.71
2023-03-15T02:31:39.664Z,51.91
2023-03-15T02:33:39.663Z,52.13
2023-03-15T02:35:39.726Z,52.1
2023-03-15T02:38:39.650Z,52.19
2023-03-15T02:40:39.692Z,51.49
2023-03-15T02:43:39.706Z,52.12
2023-03-15T02:46:39.661Z,52.78
2023-03-15T02:49:39.674Z,51.67
2023-03-15T02:52:39.674Z,51.94
2023-03-15T02:55:39.722Z,51.22
2023-03-15T02:58:39.700Z,50.93
2023-03-15T03:00:39.764Z,51.21
2023-03-15T03:03:39.722Z,51.82
2023-03-15T03:06:39.719Z,50.98
2023-03-15T03:08:39.737Z,50.43
2023-03-15T03:10:39.778Z,51.74
2023-03-15T03:13:39.733Z,51.44
2023-03-15T03:16:39.746Z,51.65
2023-03-15T03:18:39.731Z,51.68
2023-03-15T03:20:39.714Z,50.79
2023-03-15T03:22:39.731Z,51.36
2023-03-15T03:25:39.703Z,51.04
2023-03-15T03:27:39.662Z,51.37
2023-03-15T03:29:39.687Z,51.06
2023-03-15T03:31:39.717Z,50.26
2023-03-15T03:34:39.724Z,51.15
2023-03-15T03:37:39.670Z,50.83
2023-03-15T03:39:39.710Z,50.58
2023-03-15T03:42:39.677Z,49.55
2023-03-15T03:44:39.806Z,50.85
2023-03-15T03:47:39.701Z,50.91
2023-03-15T03:50:39.649Z,51.17
2023-03-15T03:52:39.653Z,49.71
2023-03-15T03:54:39.662Z,50.81
2023-03-15T03:57:39.657Z,51.26
2023-03-15T03:59:39.683Z,51.09
2023-03-15T04:02:39.758Z,50.95
2023-03-15T04:05:39.654Z,51.25
2023-03-15T04:07:39.679Z,49.66
2023-03-15T04:09:39.705Z,50.86
2023-03-15T04:12:39.727Z,51.04
2023-03-15T04:14:39.678Z,49.88
2023-03-15T04:17:39.718Z,51.15
2023-03-15T04:19:39.684Z,51.02
2023-03-15T04:22:39.702Z,51.9
2023-03-15T04:24:39.745Z,51.39
2023-03-15T04:27:39.654Z,51.78
2023-03-15T04:29:39.677Z,51.33
2023-03-15T04:32:39.707Z,51.23
2023-03-15T04:34:39.712Z,51.6
2023-03-15T04:37:39.712Z,51.16
2023-03-15T04:41:39.708Z,51.75
2023-03-15T04:44:39.656Z,50.51
2023-03-15T04:46:39.701Z,51.27
2023-03-15T04:48:39.674Z,51.8
2023-03-15T04:51:39.662Z,50.99
2023-03-15T04:53:39.707Z,50.74
2023-03-15T04:56:39.670Z,50.82
2023-03-15T04:58:39.705Z,51.32
2023-03-15T05:00:39.702Z,51.43
2023-03-15T05:02:39.686Z,51.22
2023-03-15T05:05:39.729Z,50.73
2023-03-15T05:08:39.672Z,50.9
2023-03-15T05:11:39.675Z,51.22
2023-03-15T05:13:39.700Z,50.97
2023-03-15T05:16:40.294Z,50.87
2023-03-15T05:19:39.667Z,50.32
2023-03-15T05:21:39.707Z,51.19
2023-03-15T05:24:39.754Z,51.27
2023-03-15T05:26:39.736Z,50.96
2023-03-15T05:29:39.678Z,50.94
2023-03-15T05:31:39.776Z,50.97
2023-03-15T05:34:39.695Z,51.06
2023-03-15T05:36:39.708Z,51.01
2023-03-15T05:38:39.730Z,50.67
2023-03-15T05:40:39.780Z,49.8
2023-03-15T05:43:39.696Z,50.66
2023-03-15T05:46:39.700Z,50.22
2023-03-15T05:48:39.724Z,50.6
2023-03-15T05:51:39.725Z,50.88
2023-03-15T05:53:39.726Z,49.35
2023-03-15T05:56:39.727Z,50.91
2023-03-15T05:59:39.725Z,51.2
2023-03-15T06:02:39.677Z,51.22
2023-03-15T06:04:39.673Z,49.81
2023-03-15T06:06:39.766Z,50.94
2023-03-15T06:09:39.655Z,50.34
2023-03-15T06:12:39.687Z,50.17
2023-03-15T06:15:39.720Z,49.79
2023-03-15T06:17:39.736Z,49.56
2023-03-15T06:20:39.689Z,49.4
2023-03-15T06:22:39.720Z,49.14
2023-03-15T06:25:39.741Z,49.06
2023-03-15T06:28:39.687Z,50.52
2023-03-15T06:30:39.733Z,49.95
2023-03-15T06:33:39.731Z,50.43
2023-03-15T06:36:39.655Z,50.53
2023-03-15T06:38:39.657Z,50.08
2023-03-15T06:41:39.733Z,50.53
2023-03-15T06:44:39.656Z,49.72
2023-03-15T06:46:39.752Z,49.6
2023-03-15T06:49:39.656Z,50.15
2023-03-15T06:51:39.699Z,49.62
2023-03-15T06:53:39.662Z,49.5
2023-03-15T06:55:39.679Z,49.53
2023-03-15T06:58:39.746Z,49.57
2023-03-15T07:01:39.698Z,49.72
2023-03-15T07:03:39.699Z,49.7
2023-03-15T07:06:37.735Z,48.44
2023-03-15T07:08:38.141Z,49.36
2023-03-15T07:11:38.315Z,47.89
2023-03-15T07:14:37.764Z,49.81
2023-03-15T07:17:37.713Z,48.03
2023-03-15T07:19:46.725Z,47.21
2023-03-15T07:21:38.046Z,49.56
2023-03-15T07:23:38.366Z,48.61
2023-03-15T07:26:38.437Z,48.57
2023-03-15T07:29:37.727Z,49.16
2023-03-15T07:31:38.363Z,48.02
2023-03-15T07:34:37.889Z,47.12
2023-03-15T07:37:39.652Z,49.15
2023-03-15T07:39:38.332Z,47.93
2023-03-15T07:42:37.720Z,48.83
2023-03-15T07:44:38.182Z,48.63
2023-03-15T07:47:37.741Z,48.35
2023-03-15T07:49:38.009Z,48.48
2023-03-15T07:52:37.713Z,49.11
2023-03-15T07:54:37.756Z,47.97
2023-03-15T07:57:37.711Z,48.16
2023-03-15T08:00:38.165Z,48.72
2023-03-15T08:03:38.664Z,49.09
2023-03-15T08:06:37.826Z,49.22
2023-03-15T08:09:37.664Z,49.39
2023-03-15T08:12:37.683Z,49.31
2023-03-15T08:15:37.724Z,49.47
2023-03-15T08:19:38.408Z,49.3
2023-03-15T08:22:38.550Z,49.32
2023-03-15T08:25:38.308Z,49.89
2023-03-15T08:28:38.043Z,49.22
2023-03-15T08:31:37.727Z,49.37
2023-03-15T08:33:38.326Z,49.09
2023-03-15T08:36:37.762Z,49.25
2023-03-15T08:38:37.690Z,49.2
2023-03-15T08:40:38.918Z,48.81
2023-03-15T08:42:37.730Z,49.68
2023-03-15T08:44:38.304Z,49.14
2023-03-15T08:47:37.725Z,49.08
2023-03-15T08:49:38.112Z,49.72
2023-03-15T08:52:36.751Z,48.31
2023-03-15T08:54:41.416Z,48.29
2023-03-15T08:56:41.469Z,48.29
2023-03-15T08:59:41.638Z,48.65
2023-03-15T09:02:41.467Z,48.48
2023-03-15T09:04:42.524Z,48.01
2023-03-15T09:07:41.451Z,48.72
2023-03-15T09:09:41.548Z,49.29
2023-03-15T09:12:41.417Z,49.79
2023-03-15T09:14:41.563Z,50.46
2023-03-15T09:16:41.528Z,51.36
2023-03-15T09:19:41.498Z,51.37
2023-03-15T09:22:41.438Z,52.26
2023-03-15T09:25:41.410Z,53.27
2023-03-15T09:27:41.454Z,53.13
2023-03-15T09:29:41.455Z,52.48
2023-03-15T09:31:41.475Z,52.25
2023-03-15T09:34:42.188Z,52.23
2023-03-15T09:37:41.481Z,52.42
2023-03-15T09:40:41.510Z,52.73
2023-03-15T09:42:41.447Z,52.9
2023-03-15T09:44:41.480Z,52.97
2023-03-15T09:47:41.445Z,52.36
2023-03-15T09:49:41.470Z,53.04
2023-03-15T09:51:41.550Z,53.12
2023-03-15T09:54:41.457Z,53.9
2023-03-15T09:57:41.455Z,52.91
2023-03-15T09:59:42.929Z,53.22
2023-03-15T10:02:41.581Z,54.84
2023-03-15T10:04:41.463Z,54.22
2023-03-15T10:07:41.542Z,53.83
2023-03-15T10:09:41.494Z,54.94
2023-03-15T10:12:41.565Z,53.65
2023-03-15T10:15:41.450Z,53.63
2023-03-15T10:17:41.446Z,53.47
2023-03-15T10:19:41.462Z,54.33
2023-03-15T10:22:41.585Z,54.56
2023-03-15T10:24:41.443Z,55.23
2023-03-15T10:27:41.485Z,54.43
2023-03-15T10:30:41.441Z,55.36
2023-03-15T10:32:41.609Z,55.23
2023-03-15T10:34:41.493Z,54.74
2023-03-15T10:37:41.586Z,54.07
2023-03-15T10:40:41.425Z,54
2023-03-15T10:42:41.571Z,54.33
2023-03-15T10:45:41.435Z,53.87
2023-03-15T10:47:45.193Z,54.07
2023-03-15T10:50:41.442Z,53.27
2023-03-15T10:52:41.612Z,54.49
2023-03-15T10:55:41.472Z,53
2023-03-15T10:58:41.439Z,52.89
2023-03-15T11:01:41.572Z,53.34
2023-03-15T11:03:41.623Z,54.31
2023-03-15T11:06:41.484Z,53.77
2023-03-15T11:09:41.446Z,53.83
2023-03-15T11:11:41.428Z,54.29
2023-03-15T11:13:41.495Z,53.64
2023-03-15T11:15:41.461Z,54.14
2023-03-15T11:18:41.441Z,54.44
2023-03-15T11:21:41.427Z,54.7
2023-03-15T11:23:41.483Z,53.88
2023-03-15T11:25:45.251Z,54.04
2023-03-15T11:28:41.469Z,55.07
2023-03-15T11:31:41.524Z,54.63
2023-03-15T11:33:41.682Z,52.81
2023-03-15T11:36:41.435Z,52.79
2023-03-15T11:38:41.452Z,52.4
2023-03-15T11:41:41.480Z,52.3
2023-03-15T11:44:41.533Z,51.52
2023-03-15T11:46:41.464Z,51.56
2023-03-15T11:49:41.421Z,51.66
2023-03-15T11:51:41.536Z,51.5
2023-03-15T11:54:41.446Z,50.8
2023-03-15T11:56:41.471Z,52.39
2023-03-15T11:59:41.564Z,50.83
2023-03-15T12:02:41.506Z,51.8
2023-03-15T12:05:41.486Z,50.76
2023-03-15T12:07:41.518Z,51.49
2023-03-15T12:10:41.484Z,51.17
2023-03-15T12:13:41.459Z,49.05
2023-03-15T12:15:41.513Z,48.68
2023-03-15T12:17:41.657Z,47.84
2023-03-15T12:20:41.509Z,47.36
2023-03-15T12:23:41.501Z,46.7
2023-03-15T12:25:54.896Z,46.86
2023-03-15T12:28:41.513Z,45.42
2023-03-15T12:30:41.582Z,45.86
2023-03-15T12:32:41.586Z,44.55
2023-03-15T12:35:41.711Z,44.43
2023-03-15T12:37:41.473Z,45.05
2023-03-15T12:40:41.524Z,44.21
2023-03-15T12:43:41.521Z,43.31
2023-03-15T12:45:41.515Z,43.75
2023-03-15T12:48:41.418Z,43.12
2023-03-15T12:50:41.466Z,42.13
2023-03-15T12:52:41.549Z,42.62
2023-03-15T12:55:41.582Z,42.53
2023-03-15T12:58:41.531Z,41.53
2023-03-15T13:00:41.682Z,39.98
2023-03-15T13:02:43.633Z,40.13
2023-03-15T13:04:41.497Z,39.11
2023-03-15T13:07:50.573Z,38.36
2023-03-15T13:10:41.752Z,38.68
2023-03-15T13:12:41.515Z,37.52
2023-03-15T13:15:41.464Z,38.66
2023-03-15T13:18:41.480Z,36.9
2023-03-15T13:20:41.600Z,37.86
2023-03-15T13:23:41.596Z,37.48
2023-03-15T13:26:41.496Z,37.76
2023-03-15T13:28:41.738Z,36.85
2023-03-15T13:31:41.534Z,36.45
2023-03-15T13:33:42.464Z,35.69
2023-03-15T13:35:41.527Z,35.66
2023-03-15T13:37:41.522Z,34.94
2023-03-15T13:40:41.487Z,34.83
2023-03-15T13:42:41.643Z,34.78
2023-03-15T13:45:41.454Z,34.35
2023-03-15T13:47:41.731Z,34.11
2023-03-15T13:50:41.537Z,33.66
2023-03-15T13:53:49.313Z,32.46
2023-03-15T13:55:41.533Z,32.75
2023-03-15T13:57:41.635Z,32.75
2023-03-15T13:59:41.645Z,32.75
2023-03-15T14:02:41.521Z,33.38
2023-03-15T14:04:41.502Z,31.49
2023-03-15T14:06:41.514Z,31.55
2023-03-15T14:08:41.641Z,31.91
2023-03-15T14:12:41.508Z,32.41
2023-03-15T14:15:41.524Z,34.89
2023-03-15T14:17:41.549Z,32.23
2023-03-15T14:20:41.516Z,31.76
2023-03-15T14:22:41.628Z,32.21
2023-03-15T14:25:41.560Z,31.01
2023-03-15T14:28:41.623Z,30.77
2023-03-15T14:33:41.568Z,31.71
2023-03-15T14:36:41.532Z,29.48
2023-03-15T14:38:41.525Z,30.29
2023-03-15T14:41:42.780Z,29.87
2023-03-15T14:44:41.505Z,30.14
2023-03-15T14:46:41.527Z,29.39
2023-03-15T14:49:41.504Z,29.14
2023-03-15T14:52:41.452Z,29.61
2023-03-15T14:54:41.467Z,29.14
2023-03-15T14:56:44.069Z,29
2023-03-15T14:59:41.457Z,28.92
2023-03-15T15:01:41.530Z,28.84
2023-03-15T15:04:41.462Z,28.85
2023-03-15T15:06:41.518Z,29.53
2023-03-15T15:09:41.667Z,30.82
2023-03-15T15:11:41.569Z,31.93
2023-03-15T15:14:41.536Z,28.96
2023-03-15T15:16:41.529Z,28.05
2023-03-15T15:19:42.863Z,27.15
2023-03-15T15:22:41.523Z,27.41
2023-03-15T15:24:41.526Z,29.01
2023-03-15T15:26:42.749Z,27.68
2023-03-15T15:29:41.495Z,29.26
2023-03-15T15:32:41.514Z,29.34
2023-03-15T15:34:41.505Z,28.21
2023-03-15T15:37:41.521Z,28.36
2023-03-15T15:40:41.448Z,33.35
2023-03-15T15:42:41.497Z,34.26
2023-03-15T15:45:41.494Z,35.62
2023-03-15T15:47:41.494Z,36.35
2023-03-15T15:50:41.544Z,37.12
2023-03-15T15:52:41.592Z,35.59
2023-03-15T15:55:41.532Z,36.14
2023-03-15T15:57:41.494Z,36.89
2023-03-15T16:00:41.476Z,36.6
2023-03-15T16:02:41.515Z,37.15
2023-03-15T16:05:41.451Z,37.63
2023-03-15T16:08:41.456Z,37.82
2023-03-15T16:10:41.541Z,38.27
2023-03-15T16:13:41.473Z,36.73
2023-03-15T16:15:41.561Z,37.2
2023-03-15T16:18:41.510Z,34.61
2023-03-15T16:21:41.486Z,33.77
2023-03-15T16:23:41.566Z,33.45
2023-03-15T16:26:41.519Z,33.67
2023-03-15T16:29:41.486Z,32.94
2023-03-15T16:31:41.524Z,33.02
2023-03-15T16:34:41.528Z,33.49
2023-03-15T16:37:41.501Z,33.07
2023-03-15T16:40:41.518Z,33.66
2023-03-15T16:42:41.538Z,33.5
2023-03-15T16:45:41.482Z,33.53
2023-03-15T16:47:41.544Z,33.69
2023-03-15T16:50:41.548Z,33.99
2023-03-15T16:53:41.488Z,34.18
2023-03-15T16:55:41.584Z,34.16
2023-03-15T16:58:41.550Z,35.12
2023-03-15T17:01:41.541Z,35.04
2023-03-15T17:03:41.606Z,35.33
2023-03-15T17:06:41.517Z,35.48
2023-03-15T17:08:41.609Z,35.58
2023-03-15T17:11:41.555Z,35.74
2023-03-15T17:13:41.662Z,35.94
2023-03-15T17:16:41.602Z,36.32
2023-03-15T17:19:41.523Z,36.35
2023-03-15T17:21:41.545Z,36.34
2023-03-15T17:24:41.448Z,37.19
2023-03-15T17:26:41.516Z,38.4
2023-03-15T17:29:41.628Z,37.93
2023-03-15T17:32:41.522Z,38.3
2023-03-15T17:34:41.593Z,38.71
2023-03-15T17:37:41.511Z,39.46
2023-03-15T17:39:41.546Z,40.24
2023-03-15T17:42:41.529Z,40.82
2023-03-15T17:45:41.771Z,41.1
2023-03-15T17:47:41.515Z,41.29
2023-03-15T17:50:41.482Z,41.41
2023-03-15T17:52:41.491Z,41.48
2023-03-15T17:55:41.527Z,41.43
2023-03-15T17:58:41.490Z,41.33
2023-03-15T18:00:41.604Z,41.39
2023-03-15T18:03:41.552Z,41.22
2023-03-15T18:05:41.522Z,41.63
2023-03-15T18:07:52.297Z,41.98
2023-03-15T18:10:41.570Z,41.86
2023-03-15T18:13:41.513Z,41.71
2023-03-15T18:15:41.656Z,42.57
2023-03-15T18:18:41.516Z,41.98
2023-03-15T18:20:41.621Z,42.1
2023-03-15T18:23:41.500Z,42.11
2023-03-15T18:25:41.906Z,42.55
2023-03-15T18:29:41.498Z,42.67
2023-03-15T18:31:41.576Z,42.83
2023-03-15T18:33:41.567Z,42.8
2023-03-15T18:36:41.543Z,43
2023-03-15T18:39:41.513Z,42.82
2023-03-15T18:41:41.533Z,42.54
2023-03-15T18:44:41.486Z,43.01
2023-03-15T18:46:41.797Z,43.11
2023-03-15T18:49:41.471Z,43.15
2023-03-15T18:52:41.622Z,43.22
2023-03-15T18:54:41.515Z,43.52
2023-03-15T18:57:41.661Z,43.68
2023-03-15T19:00:41.477Z,44.18
2023-03-15T19:02:41.607Z,43.96
2023-03-15T19:04:41.477Z,44.56
2023-03-15T19:07:41.614Z,44.35
2023-03-15T19:10:41.523Z,45.2
2023-03-15T19:12:41.653Z,44.47
2023-03-15T19:15:41.505Z,44.92
2023-03-15T19:18:41.659Z,45.02
2023-03-15T19:20:41.574Z,44.59
2023-03-15T19:23:49.765Z,44.77
2023-03-15T19:25:41.564Z,45.29
2023-03-15T19:28:41.787Z,44.93
2023-03-15T19:30:41.625Z,45.96
2023-03-15T19:33:41.622Z,45.53
2023-03-15T19:36:41.514Z,45.57
2023-03-15T19:39:41.666Z,45.69
2023-03-15T19:42:41.565Z,45.56
2023-03-15T19:45:41.502Z,46.2
2023-03-15T19:47:41.529Z,46.01
2023-03-15T19:49:41.528Z,46.45
2023-03-15T19:52:41.469Z,46.54
2023-03-15T19:54:41.469Z,46.66
2023-03-15T19:56:41.483Z,46.95
2023-03-15T19:58:41.555Z,47.01
2023-03-15T20:01:41.584Z,46.44
2023-03-15T20:04:41.813Z,46.78
2023-03-15T20:07:41.484Z,47.19
2023-03-15T20:09:41.567Z,47.08
2023-03-15T20:12:41.506Z,48.66
2023-03-15T20:14:41.877Z,48.08
2023-03-15T20:17:41.529Z,48.04
2023-03-15T20:19:41.536Z,48.17
2023-03-15T20:21:41.568Z,47.8
2023-03-15T20:24:41.729Z,47.52
2023-03-15T20:26:41.486Z,47.96
2023-03-15T20:28:41.613Z,47.27
2023-03-15T20:31:41.625Z,47.5
2023-03-15T20:33:41.533Z,47.66
2023-03-15T20:36:41.485Z,47.96
2023-03-15T20:39:41.602Z,47.84
2023-03-15T20:41:41.543Z,47.99
2023-03-15T20:43:41.555Z,47.64
2023-03-15T20:45:41.733Z,48.15
2023-03-15T20:48:41.588Z,48.02
2023-03-15T20:50:41.802Z,47.5
2023-03-15T20:52:41.505Z,48.1
2023-03-15T20:57:41.540Z,47.77
2023-03-15T20:59:41.530Z,47.51
2023-03-15T21:02:41.529Z,48.13
2023-03-15T21:05:41.517Z,48.22
2023-03-15T21:08:41.539Z,48.33
2023-03-15T21:10:41.518Z,48.4
2023-03-15T21:12:41.492Z,48.43
2023-03-15T21:15:41.499Z,48.55
2023-03-15T21:17:41.511Z,48.95
2023-03-15T21:20:41.494Z,48.67
2023-03-15T21:22:41.564Z,48.96
2023-03-15T21:25:41.508Z,49.27
2023-03-15T21:28:41.561Z,48.76
2023-03-15T21:31:41.530Z,49.11
2023-03-15T21:33:41.534Z,49.25
2023-03-15T21:36:41.502Z,49.08
2023-03-15T21:39:41.534Z,49.09
2023-03-15T21:41:41.511Z,49.38
2023-03-15T21:44:41.498Z,49.7
2023-03-15T21:47:41.652Z,49.94
2023-03-15T21:50:41.481Z,49.37
2023-03-15T21:52:41.759Z,49.93
2023-03-15T21:55:41.517Z,49.71
2023-03-15T21:58:41.550Z,49.92
2023-03-15T22:01:41.509Z,49.78
2023-03-15T22:04:41.608Z,49.77
2023-03-15T22:07:41.501Z,49.7
2023-03-15T22:09:44.632Z,49.7
2023-03-15T22:12:41.527Z,50.39
2023-03-15T22:15:41.502Z,49.78
2023-03-15T22:18:41.492Z,50.16
2023-03-15T22:20:41.488Z,49.58
2023-03-15T22:23:41.462Z,50.16
2023-03-15T22:25:41.492Z,50.29
2023-03-15T22:28:41.484Z,50.26
2023-03-15T22:31:09.669Z,50.87
2023-03-15T22:33:41.515Z,50.46
2023-03-15T22:36:41.539Z,50.78
2023-03-15T22:39:41.509Z,50.67
2023-03-15T22:42:41.581Z,50.88
2023-03-15T22:45:41.535Z,50.59
2023-03-15T22:47:41.576Z,50.66
2023-03-15T22:50:44.588Z,50.79
2023-03-15T22:52:41.472Z,50.83
2023-03-15T22:54:41.509Z,50.77
2023-03-15T22:56:41.534Z,50.65
2023-03-15T22:59:41.524Z,50.58
2023-03-15T23:01:41.693Z,51.13
2023-03-15T23:04:41.562Z,50.86
2023-03-15T23:07:41.545Z,50.65
2023-03-15T23:10:41.486Z,50.14
2023-03-15T23:12:42.677Z,50.18
2023-03-15T23:15:41.498Z,50.27
2023-03-15T23:17:41.507Z,50.12
2023-03-15T23:19:41.514Z,50.1
2023-03-15T23:21:41.510Z,50.4
2023-03-15T23:24:41.542Z,50.41
2023-03-15T23:27:41.491Z,49.83
2023-03-15T23:30:41.509Z,49.97
2023-03-15T23:32:41.523Z,50.08
2023-03-15T23:35:41.569Z,49.78
2023-03-15T23:37:41.505Z,49.64
2023-03-15T23:39:41.549Z,49.87
2023-03-15T23:42:41.488Z,50.3
2023-03-15T23:44:41.502Z,49.4
2023-03-15T23:47:41.519Z,49.88
2023-03-15T23:50:41.527Z,49.29
2023-03-15T23:52:41.547Z,49.55
2023-03-15T23:55:41.518Z,49.58
2023-03-15T23:58:41.516Z,49.18
